Time;durP1;ratioP1;P1;durP2;ratioP2;P2;SDS_P1;SDS_P2;PMS_P1;PMS_P2;Temp;Humidity;BMP_temperature;BMP_pressure;BME280_temperature;BME280_humidity;BME280_pressure;Samples;Min_cycle;Max_cycle;Signal;HPM_P1;HPM_P2
2022/03/13 00:01:46;;;;;;;0.10;0.10;;;;;;;;;;5023919;28;20029;-83
2022/03/13 00:04:13;;;;;;;0.50;0.50;;;;;;;;;;5023638;28;20132;-84
2022/03/13 00:06:39;;;;;;;0.10;0.10;;;;;;;;;;5023088;28;20527;-84
2022/03/13 00:09:12;;;;;;;0.10;0.10;;;;;;;;;;5021891;28;20026;-84
2022/03/13 00:11:39;;;;;;;0.10;0.10;;;;;;;;;;5027114;28;20850;-84
2022/03/13 00:14:05;;;;;;;0.15;0.15;;;;;;;;;;5024967;28;20041;-84
2022/03/13 00:16:32;;;;;;;0.05;0.05;;;;;;;;;;5023654;28;20047;-84
2022/03/13 00:18:59;;;;;;;0.10;0.10;;;;;;;;;;5025123;28;20029;-83
2022/03/13 00:21:25;;;;;;;0.10;0.10;;;;;;;;;;5021203;28;20026;-83
2022/03/13 00:23:51;;;;;;;0.10;0.10;;;;;;;;;;5023780;28;20042;-84
2022/03/13 00:26:18;;;;;;;0.10;0.10;;;;;;;;;;5024919;28;20033;-84
2022/03/13 00:28:45;;;;;;;0.10;0.10;;;;;;;;;;5029280;28;20748;-83
2022/03/13 00:31:12;;;;;;;0.20;0.20;;;;;;;;;;5032506;28;20044;-84
2022/03/13 00:33:38;;;;;;;0.10;0.10;;;;;;;;;;5024348;28;20028;-84
2022/03/13 00:36:04;;;;;;;0.20;0.20;;;;;;;;;;5019106;28;20040;-85
2022/03/13 00:38:30;;;;;;;0.10;0.10;;;;;;;;;;5026543;28;20025;-84
2022/03/13 00:40:57;;;;;;;0.17;0.17;;;;;;;;;;5023316;28;20119;-85
2022/03/13 00:43:25;;;;;;;0.10;0.10;;;;;;;;;;5023594;28;20029;-84
2022/03/13 00:45:51;;;;;;;0.20;0.20;;;;;;;;;;5023474;28;20052;-84
2022/03/13 00:48:18;;;;;;;0.00;0.00;;;;;;;;;;5020174;28;20184;-87
2022/03/13 00:50:44;;;;;;;0.08;0.08;;;;;;;;;;5024417;28;20030;-83
2022/03/13 00:53:10;;;;;;;0.00;0.00;;;;;;;;;;5019448;28;20091;-84
2022/03/13 00:55:37;;;;;;;0.10;0.10;;;;;;;;;;5017352;28;20029;-87
2022/03/13 00:58:03;;;;;;;0.10;0.10;;;;;;;;;;5024541;28;20282;-84
2022/03/13 01:00:29;;;;;;;0.20;0.20;;;;;;;;;;5018996;28;20244;-84
2022/03/13 01:02:55;;;;;;;0.20;0.20;;;;;;;;;;5016796;28;20064;-82
2022/03/13 01:05:23;;;;;;;0.10;0.10;;;;;;;;;;5017832;28;20045;-80
2022/03/13 01:07:50;;;;;;;0.20;0.20;;;;;;;;;;5021535;28;20284;-80
2022/03/13 01:10:16;;;;;;;17.85;0.65;;;;;;;;;;5020809;28;20029;-81
2022/03/13 01:12:42;;;;;;;0.10;0.10;;;;;;;;;;5027513;28;20025;-80
2022/03/13 01:15:08;;;;;;;0.10;0.10;;;;;;;;;;5025410;28;20087;-79
2022/03/13 01:17:35;;;;;;;0.20;0.20;;;;;;;;;;5030378;28;20045;-83
2022/03/13 01:20:02;;;;;;;0.10;0.10;;;;;;;;;;5023125;28;20061;-85
2022/03/13 01:22:28;;;;;;;0.10;0.10;;;;;;;;;;5021467;28;20116;-84
2022/03/13 01:24:54;;;;;;;0.00;0.00;;;;;;;;;;5027426;28;20037;-90
2022/03/13 01:27:21;;;;;;;0.10;0.10;;;;;;;;;;5025904;28;20022;-88
2022/03/13 01:29:48;;;;;;;0.10;0.10;;;;;;;;;;5029509;28;20276;-88
2022/03/13 01:32:15;;;;;;;0.00;0.00;;;;;;;;;;5023767;28;20033;-83
2022/03/13 01:34:42;;;;;;;0.10;0.10;;;;;;;;;;5027926;28;20033;-85
2022/03/13 01:37:15;;;;;;;0.40;0.40;;;;;;;;;;5023204;28;20509;-83
2022/03/13 01:39:42;;;;;;;0.80;0.57;;;;;;;;;;5024180;28;20029;-83
2022/03/13 01:42:08;;;;;;;0.00;0.00;;;;;;;;;;5023892;28;20030;-81
2022/03/13 01:44:34;;;;;;;0.98;0.60;;;;;;;;;;5027899;28;20049;-81
2022/03/13 01:47:01;;;;;;;0.30;0.30;;;;;;;;;;5024246;28;20517;-87
2022/03/13 01:49:27;;;;;;;0.10;0.10;;;;;;;;;;5025402;28;20497;-85
2022/03/13 01:51:53;;;;;;;0.10;0.10;;;;;;;;;;5024437;28;20026;-85
2022/03/13 01:54:19;;;;;;;0.10;0.10;;;;;;;;;;5027361;28;20041;-85
2022/03/13 01:56:46;;;;;;;0.10;0.10;;;;;;;;;;5022554;28;20079;-86
2022/03/13 01:59:14;;;;;;;0.33;0.30;;;;;;;;;;5024534;28;20105;-86
2022/03/13 02:01:40;;;;;;;0.00;0.00;;;;;;;;;;5027255;28;20779;-86
2022/03/13 02:04:06;;;;;;;0.20;0.20;;;;;;;;;;5023652;28;20108;-86
2022/03/13 02:06:33;;;;;;;0.20;0.20;;;;;;;;;;5023018;28;20051;-86
2022/03/13 02:08:59;;;;;;;0.13;0.13;;;;;;;;;;5023028;28;20535;-86
2022/03/13 02:11:36;;;;;;;0.10;0.10;;;;;;;;;;5030735;28;20033;-85
2022/03/13 02:14:03;;;;;;;0.47;0.47;;;;;;;;;;5021715;28;20036;-86
2022/03/13 02:16:29;;;;;;;0.10;0.10;;;;;;;;;;5022738;28;20416;-86
2022/03/13 02:18:56;;;;;;;0.40;0.40;;;;;;;;;;5026743;28;20041;-86
2022/03/13 02:21:27;;;;;;;0.10;0.10;;;;;;;;;;5029396;28;20035;-85
2022/03/13 02:23:55;;;;;;;0.17;0.17;;;;;;;;;;5027858;28;20037;-86
2022/03/13 02:26:21;;;;;;;0.13;0.13;;;;;;;;;;5026355;28;20033;-86
2022/03/13 02:28:52;;;;;;;0.10;0.10;;;;;;;;;;5028794;28;20121;-86
2022/03/13 02:31:28;;;;;;;0.10;0.10;;;;;;;;;;5024386;28;20040;-86
2022/03/13 02:33:54;;;;;;;0.20;0.20;;;;;;;;;;5024768;28;20439;-85
2022/03/13 02:36:29;;;;;;;0.20;0.20;;;;;;;;;;5021889;28;20060;-85
2022/03/13 02:38:56;;;;;;;0.10;0.10;;;;;;;;;;5023574;28;20268;-85
2022/03/13 02:41:22;;;;;;;0.17;0.17;;;;;;;;;;5025161;28;20037;-85
2022/03/13 02:43:48;;;;;;;0.10;0.10;;;;;;;;;;5025792;28;20517;-85
2022/03/13 02:46:21;;;;;;;0.10;0.10;;;;;;;;;;5025204;28;20029;-85
2022/03/13 02:48:48;;;;;;;0.13;0.13;;;;;;;;;;5019532;28;20060;-84
2022/03/13 02:53:50;;;;;;;0.10;0.10;;;;;;;;;;6052525;22;20902;-85
2022/03/13 02:56:16;;;;;;;0.40;0.40;;;;;;;;;;4979624;28;20030;-84
2022/03/13 02:58:42;;;;;;;0.20;0.20;;;;;;;;;;4979550;28;20053;-80
2022/03/13 03:01:08;;;;;;;0.10;0.10;;;;;;;;;;4981573;28;20027;-80
2022/03/13 03:03:34;;;;;;;0.10;0.10;;;;;;;;;;4978370;28;20562;-80
2022/03/13 03:06:00;;;;;;;0.40;0.40;;;;;;;;;;4984229;28;20046;-80
2022/03/13 03:08:27;;;;;;;0.00;0.00;;;;;;;;;;5207499;23;21370;-79
2022/03/13 03:10:53;;;;;;;0.20;0.20;;;;;;;;;;4960172;28;20052;-79
2022/03/13 03:13:20;;;;;;;0.10;0.10;;;;;;;;;;5204631;23;20014;-79
2022/03/13 03:15:45;;;;;;;;;;;;;;;;;;4959997;28;20018;-80
2022/03/13 03:18:11;;;;;;;0.13;0.13;;;;;;;;;;4957790;28;19921;-80
2022/03/13 03:23:13;;;;;;;0.10;0.10;;;;;;;;;;4985290;23;20109;-81
2022/03/13 03:25:39;;;;;;;0.10;0.10;;;;;;;;;;4980826;28;20077;-80
2022/03/13 03:28:07;;;;;;;0.28;0.28;;;;;;;;;;4977738;28;20312;-80
2022/03/13 03:30:33;;;;;;;0.10;0.10;;;;;;;;;;4972594;28;20486;-79
2022/03/13 03:33:03;;;;;;;0.10;0.10;;;;;;;;;;4975595;28;20027;-79
2022/03/13 03:35:29;;;;;;;0.10;0.10;;;;;;;;;;4980955;28;20071;-80
2022/03/13 03:37:56;;;;;;;0.45;0.45;;;;;;;;;;4979206;28;20026;-80
2022/03/13 03:40:22;;;;;;;1148.05;638.35;;;;;;;;;;4981128;28;20057;-80
2022/03/13 03:42:49;;;;;;;0.40;0.40;;;;;;;;;;4979977;28;20034;-79
2022/03/13 03:45:17;;;;;;;0.20;0.20;;;;;;;;;;4982900;28;20399;-79
2022/03/13 03:47:44;;;;;;;0.10;0.10;;;;;;;;;;4982694;28;20042;-80
2022/03/13 03:50:10;;;;;;;0.10;0.10;;;;;;;;;;4980661;28;20042;-80
2022/03/13 03:52:36;;;;;;;0.10;0.10;;;;;;;;;;4977436;28;20034;-81
2022/03/13 03:55:02;;;;;;;0.30;0.30;;;;;;;;;;4980460;28;20034;-80
2022/03/13 03:57:28;;;;;;;0.20;0.20;;;;;;;;;;4979731;28;20907;-80
2022/03/13 03:59:54;;;;;;;0.15;0.15;;;;;;;;;;4981061;28;20088;-80
2022/03/13 04:02:20;;;;;;;0.10;0.10;;;;;;;;;;4979821;28;20030;-80
2022/03/13 04:04:46;;;;;;;0.17;0.17;;;;;;;;;;4982791;28;20070;-80
2022/03/13 04:07:13;;;;;;;0.10;0.10;;;;;;;;;;4987767;28;20388;-79
2022/03/13 04:09:39;;;;;;;;;;;;;;;;;;4981392;28;20042;-79
2022/03/13 04:12:07;;;;;;;0.40;0.40;;;;;;;;;;4982895;28;20405;-79
2022/03/13 04:14:34;;;;;;;0.20;0.20;;;;;;;;;;4983073;28;20038;-79
2022/03/13 04:17:00;;;;;;;0.10;0.10;;;;;;;;;;4979497;28;20117;-79
2022/03/13 04:22:00;;;;;;;0.15;0.15;;;;;;;;;;4941522;28;20564;-79
2022/03/13 04:24:29;;;;;;;0.17;0.13;;;;;;;;;;4943586;28;20035;-78
2022/03/13 04:26:55;;;;;;;0.10;0.10;;;;;;;;;;4942761;29;20043;-79
2022/03/13 04:29:23;;;;;;;0.50;0.50;;;;;;;;;;4941484;28;20107;-80
2022/03/13 04:31:50;;;;;;;0.10;0.10;;;;;;;;;;4940965;28;20422;-79
2022/03/13 04:34:16;;;;;;;0.10;0.10;;;;;;;;;;4941715;28;20027;-79
2022/03/13 04:36:42;;;;;;;0.10;0.10;;;;;;;;;;4941607;28;20043;-79
2022/03/13 04:39:08;;;;;;;0.37;0.20;;;;;;;;;;4949600;28;20019;-79
2022/03/13 04:41:35;;;;;;;0.00;0.00;;;;;;;;;;4940997;28;20109;-78
2022/03/13 04:44:01;;;;;;;0.10;0.10;;;;;;;;;;4942295;28;20039;-79
2022/03/13 04:46:27;;;;;;;0.20;0.20;;;;;;;;;;4941747;28;20027;-80
2022/03/13 04:48:53;;;;;;;0.10;0.10;;;;;;;;;;4941620;28;20038;-79
2022/03/13 04:51:19;;;;;;;0.10;0.10;;;;;;;;;;4943548;28;20392;-80
2022/03/13 04:53:45;;;;;;;0.10;0.10;;;;;;;;;;4942156;28;20511;-79
2022/03/13 04:56:12;;;;;;;0.10;0.10;;;;;;;;;;4941901;28;20070;-80
2022/03/13 04:58:38;;;;;;;0.10;0.10;;;;;;;;;;4941210;28;20030;-80
2022/03/13 05:01:04;;;;;;;0.17;0.17;;;;;;;;;;4941100;28;20478;-80
2022/03/13 05:03:33;;;;;;;0.10;0.10;;;;;;;;;;4942752;28;20035;-80
2022/03/13 05:06:05;;;;;;;0.10;0.10;;;;;;;;;;4945372;29;20039;-80
2022/03/13 05:08:32;;;;;;;0.22;0.17;;;;;;;;;;5136016;23;20058;-86
2022/03/13 05:10:59;;;;;;;0.00;0.00;;;;;;;;;;4976846;28;20035;-88
2022/03/13 05:13:26;;;;;;;9.43;0.45;;;;;;;;;;4981904;28;20108;-89
2022/03/13 05:15:52;;;;;;;0.10;0.10;;;;;;;;;;4981886;28;20030;-86
2022/03/13 05:18:19;;;;;;;0.00;0.00;;;;;;;;;;4981980;28;20713;-88
2022/03/13 05:20:45;;;;;;;0.20;0.20;;;;;;;;;;4978179;28;20104;-88
2022/03/13 05:23:12;;;;;;;0.00;0.00;;;;;;;;;;4979261;28;20061;-85
2022/03/13 05:25:39;;;;;;;0.20;0.20;;;;;;;;;;4971277;28;20043;-84
2022/03/13 05:28:06;;;;;;;0.10;0.10;;;;;;;;;;4980254;28;20031;-83
2022/03/13 05:30:32;;;;;;;0.08;0.08;;;;;;;;;;4981534;28;20034;-86
2022/03/13 05:32:59;;;;;;;0.00;0.00;;;;;;;;;;4983751;28;20030;-86
2022/03/13 05:35:25;;;;;;;1.25;1.25;;;;;;;;;;4974528;28;20409;-86
2022/03/13 05:37:52;;;;;;;0.22;0.22;;;;;;;;;;4982270;28;20034;-85
2022/03/13 05:40:19;;;;;;;0.00;0.00;;;;;;;;;;4980971;28;20627;-85
2022/03/13 05:42:50;;;;;;;0.10;0.10;;;;;;;;;;4976606;28;20473;-87
2022/03/13 05:45:16;;;;;;;0.00;0.00;;;;;;;;;;4982141;28;20044;-89
2022/03/13 05:47:47;;;;;;;0.00;0.00;;;;;;;;;;4981306;28;20504;-87
2022/03/13 05:50:13;;;;;;;0.10;0.10;;;;;;;;;;4976730;28;20034;-87
2022/03/13 05:52:41;;;;;;;0.10;0.10;;;;;;;;;;4980530;28;20440;-88
2022/03/13 05:55:07;;;;;;;0.10;0.10;;;;;;;;;;4979726;28;20035;-88
2022/03/13 05:57:34;;;;;;;0.10;0.10;;;;;;;;;;4977459;28;20026;-88
2022/03/13 06:00:00;;;;;;;0.10;0.10;;;;;;;;;;4986763;28;20034;-87
2022/03/13 06:02:26;;;;;;;1.70;1.60;;;;;;;;;;4972116;28;20029;-90
2022/03/13 06:04:52;;;;;;;0.08;0.08;;;;;;;;;;4987069;28;20077;-90
2022/03/13 06:07:19;;;;;;;0.00;0.00;;;;;;;;;;4984777;28;20572;-87
2022/03/13 06:09:45;;;;;;;0.10;0.10;;;;;;;;;;4981789;28;20046;-87
2022/03/13 06:12:16;;;;;;;;;;;;;;;;;;4985027;28;20045;-85
2022/03/13 06:14:43;;;;;;;0.30;0.30;;;;;;;;;;4976737;28;20008;-86
2022/03/13 06:17:09;;;;;;;0.10;0.10;;;;;;;;;;4983909;28;20030;-84
2022/03/13 06:19:39;;;;;;;0.10;0.10;;;;;;;;;;4983561;28;20049;-87
2022/03/13 06:22:06;;;;;;;0.20;0.20;;;;;;;;;;4983875;28;20317;-87
2022/03/13 06:24:32;;;;;;;0.45;0.45;;;;;;;;;;4980106;28;20038;-86
2022/03/13 06:26:58;;;;;;;0.00;0.00;;;;;;;;;;4983746;28;20037;-86
2022/03/13 06:29:25;;;;;;;0.00;0.00;;;;;;;;;;4976858;28;20777;-86
2022/03/13 06:31:52;;;;;;;0.10;0.10;;;;;;;;;;4982896;28;20031;-86
2022/03/13 06:34:18;;;;;;;0.10;0.10;;;;;;;;;;4983320;28;20477;-85
2022/03/13 06:36:46;;;;;;;0.10;0.10;;;;;;;;;;4980757;28;20030;-85
2022/03/13 06:39:12;;;;;;;0.10;0.10;;;;;;;;;;4979531;28;20030;-88
2022/03/13 06:41:38;;;;;;;0.10;0.10;;;;;;;;;;4997760;28;20042;-85
2022/03/13 06:44:05;;;;;;;0.05;0.05;;;;;;;;;;4980247;28;20286;-84
2022/03/13 06:46:34;;;;;;;1.02;0.43;;;;;;;;;;4983395;28;20113;-84
2022/03/13 06:49:01;;;;;;;0.10;0.10;;;;;;;;;;4981946;28;20073;-87
2022/03/13 06:51:27;;;;;;;0.10;0.10;;;;;;;;;;4981394;28;20157;-86
2022/03/13 06:53:53;;;;;;;0.65;0.30;;;;;;;;;;4982227;28;20042;-86
2022/03/13 06:56:19;;;;;;;0.17;0.17;;;;;;;;;;4982630;28;20035;-85
2022/03/13 06:58:45;;;;;;;0.33;0.30;;;;;;;;;;4982703;28;20813;-88
2022/03/13 07:01:12;;;;;;;0.37;0.37;;;;;;;;;;4981120;28;20030;-85
2022/03/13 07:03:38;;;;;;;0.20;0.20;;;;;;;;;;4983011;28;20062;-84
2022/03/13 07:06:04;;;;;;;0.10;0.10;;;;;;;;;;4984591;28;20053;-85
2022/03/13 07:08:32;;;;;;;0.10;0.10;;;;;;;;;;4982017;28;20430;-84
2022/03/13 07:10:59;;;;;;;0.20;0.20;;;;;;;;;;4980663;28;20026;-86
2022/03/13 07:13:26;;;;;;;0.10;0.10;;;;;;;;;;4982910;28;20042;-80
2022/03/13 07:15:52;;;;;;;;;;;;;;;;;;4980656;28;20053;-83
2022/03/13 07:18:19;;;;;;;0.10;0.10;;;;;;;;;;4976467;28;20851;-84
2022/03/13 07:20:45;;;;;;;0.10;0.10;;;;;;;;;;4982844;28;20034;-86
2022/03/13 07:23:11;;;;;;;0.10;0.10;;;;;;;;;;4980762;28;20029;-77
2022/03/13 07:25:37;;;;;;;0.10;0.10;;;;;;;;;;4979380;28;20305;-77
2022/03/13 07:28:03;;;;;;;1.30;0.20;;;;;;;;;;4979938;28;20851;-77
2022/03/13 07:30:29;;;;;;;0.05;0.03;;;;;;;;;;4979636;28;20112;-77
2022/03/13 07:32:55;;;;;;;0.00;0.00;;;;;;;;;;4978547;28;20639;-77
2022/03/13 07:35:22;;;;;;;0.37;0.37;;;;;;;;;;4979841;28;20062;-78
2022/03/13 07:37:48;;;;;;;0.00;0.00;;;;;;;;;;4981296;28;20290;-78
2022/03/13 07:40:14;;;;;;;0.00;0.00;;;;;;;;;;4979115;28;20053;-78
2022/03/13 07:42:40;;;;;;;0.00;0.00;;;;;;;;;;4982405;28;20030;-78
2022/03/13 07:45:06;;;;;;;0.00;0.00;;;;;;;;;;4983628;28;20065;-78
2022/03/13 07:47:33;;;;;;;0.00;0.00;;;;;;;;;;4980421;28;20030;-78
2022/03/13 07:49:59;;;;;;;0.10;0.10;;;;;;;;;;4977894;28;20034;-78
2022/03/13 07:52:25;;;;;;;0.00;0.00;;;;;;;;;;4977277;28;20081;-78
2022/03/13 07:54:51;;;;;;;0.05;0.05;;;;;;;;;;4976838;28;20042;-78
2022/03/13 07:57:17;;;;;;;0.05;0.05;;;;;;;;;;4981765;28;20038;-78
2022/03/13 07:59:45;;;;;;;0.10;0.10;;;;;;;;;;4976129;28;20529;-77
2022/03/13 08:02:11;;;;;;;0.00;0.00;;;;;;;;;;4981961;28;20053;-78
2022/03/13 08:04:38;;;;;;;0.00;0.00;;;;;;;;;;4976516;28;20062;-78
2022/03/13 08:07:04;;;;;;;0.20;0.20;;;;;;;;;;4978163;28;20289;-79
2022/03/13 08:09:30;;;;;;;0.10;0.10;;;;;;;;;;4981220;28;20161;-79
2022/03/13 08:11:56;;;;;;;0.10;0.10;;;;;;;;;;4979928;28;20041;-80
2022/03/13 08:14:22;;;;;;;0.00;0.00;;;;;;;;;;4979862;28;20277;-79
2022/03/13 08:16:48;;;;;;;0.60;0.60;;;;;;;;;;4978197;28;20974;-79
2022/03/13 08:19:14;;;;;;;0.10;0.10;;;;;;;;;;4979276;28;20281;-79
2022/03/13 08:21:41;;;;;;;0.00;0.00;;;;;;;;;;4978743;28;20102;-79
2022/03/13 08:24:07;;;;;;;0.00;0.00;;;;;;;;;;4970307;28;20823;-79
2022/03/13 08:26:38;;;;;;;0.00;0.00;;;;;;;;;;4980074;28;20048;-79
2022/03/13 08:29:05;;;;;;;0.10;0.10;;;;;;;;;;4978192;28;20027;-80
2022/03/13 08:31:33;;;;;;;0.00;0.00;;;;;;;;;;4974433;28;20421;-80
2022/03/13 08:33:59;;;;;;;0.00;0.00;;;;;;;;;;4971898;28;20494;-79
2022/03/13 08:36:25;;;;;;;0.05;0.05;;;;;;;;;;4981263;28;20505;-84
2022/03/13 08:38:52;;;;;;;0.00;0.00;;;;;;;;;;4978443;28;20034;-82
2022/03/13 08:41:18;;;;;;;0.10;0.10;;;;;;;;;;4980604;28;20034;-83
2022/03/13 08:43:45;;;;;;;0.00;0.00;;;;;;;;;;4979689;28;20192;-84
2022/03/13 08:46:12;;;;;;;0.10;0.10;;;;;;;;;;4977071;28;20046;-82
2022/03/13 08:48:39;;;;;;;0.00;0.00;;;;;;;;;;4978097;28;20022;-83
2022/03/13 08:51:05;;;;;;;0.00;0.00;;;;;;;;;;4981338;28;20100;-79
2022/03/13 08:53:31;;;;;;;0.17;0.17;;;;;;;;;;4979720;28;20133;-82
2022/03/13 08:55:57;;;;;;;0.13;0.13;;;;;;;;;;4977641;28;20088;-83
2022/03/13 08:58:24;;;;;;;0.35;0.35;;;;;;;;;;4980229;28;20108;-87
2022/03/13 09:00:51;;;;;;;0.00;0.00;;;;;;;;;;4970863;28;20046;-82
2022/03/13 09:03:18;;;;;;;0.25;0.25;;;;;;;;;;4980603;28;20030;-82
2022/03/13 09:05:45;;;;;;;0.57;0.50;;;;;;;;;;4980159;28;20050;-82
2022/03/13 09:08:11;;;;;;;1.10;1.05;;;;;;;;;;4974113;28;20026;-84
2022/03/13 09:10:37;;;;;;;0.20;0.20;;;;;;;;;;4980565;28;20088;-86
2022/03/13 09:13:03;;;;;;;0.30;0.30;;;;;;;;;;4978747;28;20310;-83
2022/03/13 09:15:29;;;;;;;0.25;0.25;;;;;;;;;;4977640;28;20050;-91
2022/03/13 09:17:55;;;;;;;0.10;0.10;;;;;;;;;;4980123;28;20030;-87
2022/03/13 09:20:22;;;;;;;0.67;0.17;;;;;;;;;;4979451;28;20080;-86
2022/03/13 09:22:49;;;;;;;0.10;0.10;;;;;;;;;;4979411;28;20030;-85
2022/03/13 09:25:15;;;;;;;0.00;0.00;;;;;;;;;;4977631;28;20053;-83
2022/03/13 09:27:41;;;;;;;0.10;0.10;;;;;;;;;;4979110;28;20129;-86
2022/03/13 09:30:08;;;;;;;0.10;0.10;;;;;;;;;;4983701;28;20038;-84
2022/03/13 09:32:34;;;;;;;0.52;0.40;;;;;;;;;;4982488;28;20401;-86
2022/03/13 09:35:00;;;;;;;0.53;0.53;;;;;;;;;;4978961;28;20050;-85
2022/03/13 09:37:26;;;;;;;3.00;0.30;;;;;;;;;;4973836;28;20424;-84
2022/03/13 09:39:53;;;;;;;0.10;0.10;;;;;;;;;;4973469;28;20042;-85
2022/03/13 09:42:19;;;;;;;0.00;0.00;;;;;;;;;;4971651;28;20292;-84
2022/03/13 09:44:45;;;;;;;0.10;0.10;;;;;;;;;;4972036;28;20039;-84
2022/03/13 09:47:11;;;;;;;0.10;0.10;;;;;;;;;;4978351;28;20054;-85
2022/03/13 09:49:40;;;;;;;0.30;0.30;;;;;;;;;;4981472;28;20042;-85
2022/03/13 09:52:06;;;;;;;0.65;0.45;;;;;;;;;;4977576;28;20505;-85
2022/03/13 09:54:33;;;;;;;1.10;0.87;;;;;;;;;;4977343;28;20136;-86
2022/03/13 09:57:01;;;;;;;0.00;0.00;;;;;;;;;;4979209;28;20344;-86
2022/03/13 09:59:27;;;;;;;0.00;0.00;;;;;;;;;;4980057;28;20966;-85
2022/03/13 10:01:53;;;;;;;0.10;0.10;;;;;;;;;;4982435;28;20076;-85
2022/03/13 10:04:20;;;;;;;0.00;0.00;;;;;;;;;;4980398;28;20121;-85
2022/03/13 10:07:04;;;;;;;0.07;0.07;;;;;;;;;;4976728;28;20116;-86
2022/03/13 10:09:32;;;;;;;0.08;0.08;;;;;;;;;;4982117;28;20066;-85
2022/03/13 10:12:04;;;;;;;0.10;0.10;;;;;;;;;;4982841;28;20031;-85
2022/03/13 10:14:30;;;;;;;0.05;0.05;;;;;;;;;;4982296;28;20129;-85
2022/03/13 10:16:56;;;;;;;0.00;0.00;;;;;;;;;;4981734;28;20494;-84
2022/03/13 10:19:24;;;;;;;1.07;0.73;;;;;;;;;;4999327;28;20136;-85
2022/03/13 10:22:20;;;;;;;0.50;0.43;;;;;;;;;;4980910;28;20296;-86
2022/03/13 10:24:46;;;;;;;0.07;0.03;;;;;;;;;;4970603;28;20517;-85
2022/03/13 10:27:14;;;;;;;0.40;0.35;;;;;;;;;;4971413;28;20489;-85
2022/03/13 10:29:40;;;;;;;0.65;0.65;;;;;;;;;;4970397;28;20034;-86
2022/03/13 10:32:06;;;;;;;0.00;0.00;;;;;;;;;;4982066;28;20117;-85
2022/03/13 10:34:33;;;;;;;0.00;0.00;;;;;;;;;;4985968;28;20706;-85
2022/03/13 10:37:01;;;;;;;0.10;0.10;;;;;;;;;;4984850;28;20041;-84
2022/03/13 10:39:27;;;;;;;0.13;0.13;;;;;;;;;;4979600;28;20064;-85
2022/03/13 10:41:59;;;;;;;0.10;0.10;;;;;;;;;;4983156;28;20061;-85
2022/03/13 10:44:25;;;;;;;0.00;0.00;;;;;;;;;;4982354;28;20030;-85
2022/03/13 10:46:58;;;;;;;0.30;0.30;;;;;;;;;;4983284;28;20121;-85
2022/03/13 10:49:32;;;;;;;0.00;0.00;;;;;;;;;;4983309;28;20613;-85
2022/03/13 10:51:59;;;;;;;0.10;0.10;;;;;;;;;;4983357;28;20042;-84
2022/03/13 10:54:34;;;;;;;0.00;0.00;;;;;;;;;;4983254;28;20121;-85
2022/03/13 10:57:27;;;;;;;1.27;0.95;;;;;;;;;;4982081;28;20034;-85
2022/03/13 11:00:12;;;;;;;0.50;0.50;;;;;;;;;;4980995;28;20049;-84
2022/03/13 11:02:39;;;;;;;0.00;0.00;;;;;;;;;;4983084;28;20090;-84
2022/03/13 11:05:05;;;;;;;0.17;0.17;;;;;;;;;;4978927;28;20050;-85
2022/03/13 11:07:32;;;;;;;0.10;0.10;;;;;;;;;;4982376;28;20089;-85
2022/03/13 11:09:58;;;;;;;1.25;0.55;;;;;;;;;;4982517;28;20106;-84
2022/03/13 11:12:26;;;;;;;0.10;0.10;;;;;;;;;;4983395;28;20105;-84
2022/03/13 11:14:55;;;;;;;0.10;0.10;;;;;;;;;;4968322;28;20022;-85
2022/03/13 11:17:23;;;;;;;0.00;0.00;;;;;;;;;;4971012;28;20037;-85
2022/03/13 11:19:51;;;;;;;0.20;0.20;;;;;;;;;;4968703;28;20030;-86
2022/03/13 11:22:20;;;;;;;0.10;0.10;;;;;;;;;;4971922;28;20037;-85
2022/03/13 11:24:46;;;;;;;0.38;0.35;;;;;;;;;;4967484;28;20458;-85
2022/03/13 11:27:13;;;;;;;0.10;0.10;;;;;;;;;;4969191;28;20405;-85
2022/03/13 11:29:44;;;;;;;0.10;0.10;;;;;;;;;;4967198;28;20073;-85
2022/03/13 11:32:29;;;;;;;0.00;0.00;;;;;;;;;;4975950;28;20104;-85
2022/03/13 11:35:14;;;;;;;0.10;0.10;;;;;;;;;;4967012;28;20134;-85
2022/03/13 11:37:41;;;;;;;0.10;0.10;;;;;;;;;;4972603;28;20037;-85
2022/03/13 11:40:07;;;;;;;;;;;;;;;;;;4968798;28;20062;-85
2022/03/13 11:42:49;;;;;;;0.10;0.10;;;;;;;;;;4968017;28;20012;-84
2022/03/13 11:45:30;;;;;;;0.10;0.10;;;;;;;;;;4968600;28;20481;-85
2022/03/13 11:48:19;;;;;;;0.10;0.10;;;;;;;;;;4967312;28;20031;-85
2022/03/13 11:51:02;;;;;;;0.10;0.10;;;;;;;;;;4966809;28;20938;-85
2022/03/13 11:53:29;;;;;;;0.08;0.08;;;;;;;;;;4967677;28;20038;-85
2022/03/13 11:56:02;;;;;;;0.10;0.10;;;;;;;;;;4969586;28;20040;-85
2022/03/13 11:58:46;;;;;;;0.90;0.25;;;;;;;;;;4968517;28;20112;-85
2022/03/13 12:01:20;;;;;;;0.00;0.00;;;;;;;;;;4967982;28;20031;-85
2022/03/13 12:04:03;;;;;;;0.00;0.00;;;;;;;;;;4967044;28;20034;-85
2022/03/13 12:06:48;;;;;;;0.00;0.00;;;;;;;;;;4970857;28;20062;-86
2022/03/13 12:09:14;;;;;;;0.10;0.10;;;;;;;;;;4973727;28;20046;-86
2022/03/13 12:11:59;;;;;;;0.10;0.10;;;;;;;;;;4972119;28;20084;-86
2022/03/13 12:14:44;;;;;;;0.00;0.00;;;;;;;;;;4980401;28;20034;-85
2022/03/13 12:17:15;;;;;;;0.00;0.00;;;;;;;;;;4968756;28;20100;-85
2022/03/13 12:19:41;;;;;;;0.20;0.20;;;;;;;;;;4972485;28;20038;-86
2022/03/13 12:22:07;;;;;;;0.00;0.00;;;;;;;;;;4971954;28;20027;-86
2022/03/13 12:24:34;;;;;;;0.00;0.00;;;;;;;;;;4973574;28;20034;-86
2022/03/13 12:27:07;;;;;;;0.10;0.10;;;;;;;;;;4970887;28;20045;-85
2022/03/13 12:29:33;;;;;;;0.20;0.20;;;;;;;;;;4971120;28;20033;-86
2022/03/13 12:32:02;;;;;;;0.00;0.00;;;;;;;;;;4972046;28;20104;-85
2022/03/13 12:34:32;;;;;;;0.00;0.00;;;;;;;;;;4968220;28;20049;-85
2022/03/13 12:37:00;;;;;;;0.00;0.00;;;;;;;;;;4967917;28;20113;-85
2022/03/13 12:39:27;;;;;;;0.00;0.00;;;;;;;;;;4970091;28;20141;-86
2022/03/13 12:42:00;;;;;;;0.00;0.00;;;;;;;;;;4969879;28;20038;-86
2022/03/13 12:44:27;;;;;;;0.10;0.10;;;;;;;;;;4972146;28;20043;-85
2022/03/13 12:46:54;;;;;;;0.00;0.00;;;;;;;;;;4966064;28;20043;-85
2022/03/13 12:49:47;;;;;;;0.10;0.10;;;;;;;;;;4966796;28;20035;-85
2022/03/13 12:52:13;;;;;;;0.20;0.20;;;;;;;;;;4968887;28;20042;-85
2022/03/13 12:54:40;;;;;;;0.10;0.10;;;;;;;;;;4970905;28;20100;-85
2022/03/13 12:57:08;;;;;;;0.00;0.00;;;;;;;;;;4972936;28;20566;-85
2022/03/13 12:59:34;;;;;;;0.10;0.10;;;;;;;;;;4977841;28;20066;-85
2022/03/13 13:02:10;;;;;;;0.10;0.10;;;;;;;;;;4973861;28;20073;-86
2022/03/13 13:04:40;;;;;;;0.03;0.03;;;;;;;;;;4971681;28;20093;-85
2022/03/13 13:07:10;;;;;;;0.00;0.00;;;;;;;;;;4970211;28;20105;-85
2022/03/13 13:09:36;;;;;;;0.00;0.00;;;;;;;;;;4971393;28;20055;-85
2022/03/13 13:12:03;;;;;;;0.05;0.05;;;;;;;;;;4971648;28;20510;-85
2022/03/13 13:14:30;;;;;;;0.10;0.10;;;;;;;;;;4971023;28;20907;-86
2022/03/13 13:16:57;;;;;;;0.20;0.20;;;;;;;;;;4968887;28;20946;-85
2022/03/13 13:19:23;;;;;;;;;;;;;;;;;;4975714;28;20034;-85
2022/03/13 13:21:59;;;;;;;0.10;0.10;;;;;;;;;;4977204;28;19959;-85
2022/03/13 13:24:28;;;;;;;0.10;0.10;;;;;;;;;;4977687;28;20774;-87
2022/03/13 13:26:54;;;;;;;0.00;0.00;;;;;;;;;;4983999;28;20026;-85
2022/03/13 13:29:39;;;;;;;0.00;0.00;;;;;;;;;;4978414;28;20146;-85
2022/03/13 13:32:21;;;;;;;0.00;0.00;;;;;;;;;;4976718;28;20112;-84
2022/03/13 13:35:00;;;;;;;0.10;0.10;;;;;;;;;;4979636;28;20053;-84
2022/03/13 13:37:26;;;;;;;0.08;0.08;;;;;;;;;;4986773;28;20038;-85
2022/03/13 13:40:06;;;;;;;0.10;0.10;;;;;;;;;;4980210;28;20847;-85
2022/03/13 13:42:32;;;;;;;0.08;0.08;;;;;;;;;;4979456;28;20038;-86
2022/03/13 13:45:01;;;;;;;0.00;0.00;;;;;;;;;;4985198;28;20038;-85
2022/03/13 13:47:27;;;;;;;0.00;0.00;;;;;;;;;;4986387;28;20720;-84
2022/03/13 13:49:53;;;;;;;0.03;0.03;;;;;;;;;;4976811;28;20049;-85
2022/03/13 13:52:27;;;;;;;0.10;0.10;;;;;;;;;;4998246;28;20026;-85
2022/03/13 13:54:54;;;;;;;0.00;0.00;;;;;;;;;;4982486;28;20077;-85
2022/03/13 13:57:20;;;;;;;0.10;0.10;;;;;;;;;;4977998;28;20026;-85
2022/03/13 13:59:46;;;;;;;0.10;0.10;;;;;;;;;;4983677;28;20030;-85
2022/03/13 14:02:16;;;;;;;0.00;0.00;;;;;;;;;;4979932;28;20087;-85
2022/03/13 14:04:43;;;;;;;0.10;0.10;;;;;;;;;;4980116;28;20293;-84
2022/03/13 14:07:09;;;;;;;0.20;0.20;;;;;;;;;;4982878;28;20066;-84
2022/03/13 14:09:36;;;;;;;0.10;0.10;;;;;;;;;;4983410;28;20101;-84
2022/03/13 14:12:03;;;;;;;0.00;0.00;;;;;;;;;;4981251;28;20034;-84
2022/03/13 14:14:29;;;;;;;0.00;0.00;;;;;;;;;;4978247;28;20022;-86
2022/03/13 14:16:55;;;;;;;0.10;0.10;;;;;;;;;;4980935;28;20505;-85
2022/03/13 14:19:22;;;;;;;0.10;0.10;;;;;;;;;;4983363;28;20082;-85
2022/03/13 14:21:48;;;;;;;0.00;0.00;;;;;;;;;;4978165;28;20410;-85
2022/03/13 14:24:15;;;;;;;0.10;0.10;;;;;;;;;;4980279;28;20030;-85
2022/03/13 14:26:41;;;;;;;0.00;0.00;;;;;;;;;;4981053;28;20294;-86
2022/03/13 14:29:07;;;;;;;0.10;0.10;;;;;;;;;;4982514;28;20034;-86
2022/03/13 14:31:34;;;;;;;0.00;0.00;;;;;;;;;;4977286;28;20035;-85
2022/03/13 14:34:00;;;;;;;0.00;0.00;;;;;;;;;;4981071;28;20277;-85
2022/03/13 14:36:27;;;;;;;0.10;0.10;;;;;;;;;;4983257;28;20045;-86
2022/03/13 14:38:53;;;;;;;0.03;0.03;;;;;;;;;;4974128;28;20034;-85
2022/03/13 14:41:20;;;;;;;0.10;0.10;;;;;;;;;;4976699;28;20030;-86
2022/03/13 14:43:46;;;;;;;;;;;;;;;;;;4978887;28;20097;-86
2022/03/13 14:46:13;;;;;;;0.20;0.20;;;;;;;;;;4984609;28;20454;-86
2022/03/13 14:48:40;;;;;;;0.57;0.57;;;;;;;;;;4983966;28;20033;-85
2022/03/13 14:51:06;;;;;;;0.20;0.20;;;;;;;;;;4973633;28;20065;-86
2022/03/13 14:53:35;;;;;;;1.40;0.73;;;;;;;;;;4983741;28;20035;-86
2022/03/13 14:56:02;;;;;;;0.52;0.47;;;;;;;;;;4984003;28;20034;-86
2022/03/13 14:58:28;;;;;;;0.75;0.30;;;;;;;;;;4980057;28;20045;-86